Heathman, Mississippi
Current Conditions -  °F | °C
As of 7:53 AM on Friday 19 Dec 2014 (Local Time) from KGLH Reporting Station
Few Clouds Few Clouds  
Wind Chill: 39°   Ceiling: Unl
Heat Index: 44°   Visibility: 7mi
Dew Point: 40°   Wind: 10mph
Humidity: 85%   Direction: 30°NNE
Pressure: 30.22"   Gusts: NA
Location:  33.4825°N, 90.6856°W
Report Text: KGLH 191353Z AUTO 03009KT 7SM FEW043 07/04 A3022 RMK AO2 SLP241 T00670044
Loading
Personal Weather Stations






























Interactive Weather Map New forecast layout! Learn more

10-Day Weather Forecast

Advertisements
Track Severe Weather on mobile